sensor_id;sensor_type;location;lat;lon;timestamp;P1;durP1;ratioP1;P2;durP2;ratioP2
70761;SDS011;58360;0.000;0.000;2023-06-22T00:00:48;7.28;;;3.45;;
70761;SDS011;58360;0.000;0.000;2023-06-22T00:03:15;5.50;;;2.95;;
70761;SDS011;58360;0.000;0.000;2023-06-22T00:05:42;6.22;;;3.00;;
70761;SDS011;58360;0.000;0.000;2023-06-22T00:08:07;5.38;;;3.15;;
70761;SDS011;58360;0.000;0.000;2023-06-22T00:10:33;7.07;;;3.10;;
70761;SDS011;58360;0.000;0.000;2023-06-22T00:12:59;10.38;;;3.40;;
70761;SDS011;58360;0.000;0.000;2023-06-22T00:15:25;5.90;;;3.45;;
70761;SDS011;58360;0.000;0.000;2023-06-22T00:17:51;8.07;;;3.28;;
70761;SDS011;58360;0.000;0.000;2023-06-22T00:20:16;6.68;;;3.50;;
70761;SDS011;58360;0.000;0.000;2023-06-22T00:22:45;6.10;;;3.70;;
70761;SDS011;58360;0.000;0.000;2023-06-22T00:25:11;6.65;;;3.75;;
70761;SDS011;58360;0.000;0.000;2023-06-22T00:27:36;7.70;;;3.67;;
70761;SDS011;58360;0.000;0.000;2023-06-22T00:30:02;6.13;;;3.40;;
70761;SDS011;58360;0.000;0.000;2023-06-22T00:32:29;7.13;;;3.88;;
70761;SDS011;58360;0.000;0.000;2023-06-22T00:34:54;7.93;;;3.83;;
70761;SDS011;58360;0.000;0.000;2023-06-22T00:37:20;8.85;;;4.15;;
70761;SDS011;58360;0.000;0.000;2023-06-22T00:39:54;10.02;;;4.10;;
70761;SDS011;58360;0.000;0.000;2023-06-22T00:42:20;8.43;;;3.90;;
70761;SDS011;58360;0.000;0.000;2023-06-22T00:44:46;7.60;;;3.53;;
70761;SDS011;58360;0.000;0.000;2023-06-22T00:47:13;6.45;;;3.83;;
70761;SDS011;58360;0.000;0.000;2023-06-22T00:49:41;6.80;;;3.83;;
70761;SDS011;58360;0.000;0.000;2023-06-22T00:52:06;10.75;;;3.95;;
70761;SDS011;58360;0.000;0.000;2023-06-22T00:54:37;9.95;;;4.10;;
70761;SDS011;58360;0.000;0.000;2023-06-22T00:57:03;8.18;;;3.85;;
70761;SDS011;58360;0.000;0.000;2023-06-22T00:59:29;9.00;;;4.13;;
70761;SDS011;58360;0.000;0.000;2023-06-22T01:01:57;7.75;;;4.00;;
70761;SDS011;58360;0.000;0.000;2023-06-22T01:04:24;7.15;;;3.85;;
70761;SDS011;58360;0.000;0.000;2023-06-22T01:09:44;8.02;;;3.50;;
70761;SDS011;58360;0.000;0.000;2023-06-22T01:12:13;7.05;;;3.45;;
70761;SDS011;58360;0.000;0.000;2023-06-22T01:14:42;6.25;;;3.45;;
70761;SDS011;58360;0.000;0.000;2023-06-22T01:17:12;8.38;;;3.78;;
70761;SDS011;58360;0.000;0.000;2023-06-22T01:19:45;8.48;;;3.90;;
70761;SDS011;58360;0.000;0.000;2023-06-22T01:22:23;7.00;;;3.95;;
70761;SDS011;58360;0.000;0.000;2023-06-22T01:25:43;6.63;;;3.90;;
70761;SDS011;58360;0.000;0.000;2023-06-22T01:27:48;7.78;;;4.10;;
70761;SDS011;58360;0.000;0.000;2023-06-22T01:30:27;7.90;;;4.35;;
70761;SDS011;58360;0.000;0.000;2023-06-22T01:32:55;7.07;;;4.10;;
70761;SDS011;58360;0.000;0.000;2023-06-22T01:35:23;7.78;;;4.53;;
70761;SDS011;58360;0.000;0.000;2023-06-22T01:37:50;8.80;;;4.35;;
70761;SDS011;58360;0.000;0.000;2023-06-22T01:40:16;7.57;;;4.18;;
70761;SDS011;58360;0.000;0.000;2023-06-22T01:42:44;8.43;;;3.85;;
70761;SDS011;58360;0.000;0.000;2023-06-22T01:45:10;10.15;;;4.60;;
70761;SDS011;58360;0.000;0.000;2023-06-22T01:47:37;7.03;;;4.30;;
70761;SDS011;58360;0.000;0.000;2023-06-22T01:50:04;8.93;;;5.30;;
70761;SDS011;58360;0.000;0.000;2023-06-22T01:52:30;7.18;;;4.70;;
70761;SDS011;58360;0.000;0.000;2023-06-22T01:54:58;7.43;;;5.10;;
70761;SDS011;58360;0.000;0.000;2023-06-22T01:57:25;10.10;;;5.15;;
70761;SDS011;58360;0.000;0.000;2023-06-22T02:02:27;8.13;;;4.80;;
70761;SDS011;58360;0.000;0.000;2023-06-22T02:04:59;8.35;;;5.18;;
70761;SDS011;58360;0.000;0.000;2023-06-22T02:07:39;12.32;;;5.32;;
70761;SDS011;58360;0.000;0.000;2023-06-22T02:10:09;6.43;;;4.45;;
70761;SDS011;58360;0.000;0.000;2023-06-22T02:12:39;7.78;;;4.32;;
70761;SDS011;58360;0.000;0.000;2023-06-22T02:15:07;7.75;;;4.90;;
70761;SDS011;58360;0.000;0.000;2023-06-22T02:17:34;13.93;;;5.65;;
70761;SDS011;58360;0.000;0.000;2023-06-22T02:20:01;9.25;;;5.68;;
70761;SDS011;58360;0.000;0.000;2023-06-22T02:22:29;10.48;;;5.43;;
70761;SDS011;58360;0.000;0.000;2023-06-22T02:24:55;9.77;;;5.75;;
70761;SDS011;58360;0.000;0.000;2023-06-22T02:27:21;9.45;;;5.90;;
70761;SDS011;58360;0.000;0.000;2023-06-22T02:29:47;11.85;;;6.10;;
70761;SDS011;58360;0.000;0.000;2023-06-22T02:32:12;8.40;;;5.70;;
70761;SDS011;58360;0.000;0.000;2023-06-22T02:34:38;10.35;;;6.10;;
70761;SDS011;58360;0.000;0.000;2023-06-22T02:37:04;9.18;;;5.93;;
70761;SDS011;58360;0.000;0.000;2023-06-22T02:39:30;11.60;;;6.32;;
70761;SDS011;58360;0.000;0.000;2023-06-22T02:41:55;11.00;;;6.50;;
70761;SDS011;58360;0.000;0.000;2023-06-22T02:44:21;10.68;;;6.68;;
70761;SDS011;58360;0.000;0.000;2023-06-22T02:46:47;11.43;;;6.53;;
70761;SDS011;58360;0.000;0.000;2023-06-22T02:49:13;12.02;;;6.10;;
70761;SDS011;58360;0.000;0.000;2023-06-22T02:51:41;8.95;;;6.00;;
70761;SDS011;58360;0.000;0.000;2023-06-22T02:54:09;9.88;;;5.88;;
70761;SDS011;58360;0.000;0.000;2023-06-22T02:56:35;9.95;;;6.28;;
70761;SDS011;58360;0.000;0.000;2023-06-22T02:59:02;11.25;;;7.03;;
70761;SDS011;58360;0.000;0.000;2023-06-22T03:01:30;9.73;;;6.45;;
70761;SDS011;58360;0.000;0.000;2023-06-22T03:04:02;11.43;;;6.78;;
70761;SDS011;58360;0.000;0.000;2023-06-22T03:06:29;10.60;;;7.10;;
70761;SDS011;58360;0.000;0.000;2023-06-22T03:08:59;11.68;;;7.32;;
70761;SDS011;58360;0.000;0.000;2023-06-22T03:11:26;12.70;;;6.85;;
70761;SDS011;58360;0.000;0.000;2023-06-22T03:13:51;11.20;;;7.18;;
70761;SDS011;58360;0.000;0.000;2023-06-22T03:16:18;9.55;;;6.47;;
70761;SDS011;58360;0.000;0.000;2023-06-22T03:18:44;13.20;;;7.00;;
70761;SDS011;58360;0.000;0.000;2023-06-22T03:21:10;12.05;;;7.15;;
70761;SDS011;58360;0.000;0.000;2023-06-22T03:23:35;11.95;;;7.32;;
70761;SDS011;58360;0.000;0.000;2023-06-22T03:26:01;11.00;;;6.57;;
70761;SDS011;58360;0.000;0.000;2023-06-22T03:28:27;13.98;;;7.63;;
70761;SDS011;58360;0.000;0.000;2023-06-22T03:30:53;13.15;;;7.70;;
70761;SDS011;58360;0.000;0.000;2023-06-22T03:33:19;12.23;;;7.15;;
70761;SDS011;58360;0.000;0.000;2023-06-22T03:35:44;10.95;;;7.15;;
70761;SDS011;58360;0.000;0.000;2023-06-22T03:38:10;13.43;;;8.55;;
70761;SDS011;58360;0.000;0.000;2023-06-22T03:40:36;12.00;;;8.50;;
70761;SDS011;58360;0.000;0.000;2023-06-22T03:43:01;9.38;;;6.75;;
70761;SDS011;58360;0.000;0.000;2023-06-22T03:45:27;11.38;;;8.00;;
70761;SDS011;58360;0.000;0.000;2023-06-22T03:47:52;13.95;;;7.05;;
70761;SDS011;58360;0.000;0.000;2023-06-22T03:50:18;10.85;;;7.53;;
70761;SDS011;58360;0.000;0.000;2023-06-22T03:52:45;10.77;;;7.68;;
70761;SDS011;58360;0.000;0.000;2023-06-22T03:55:11;10.60;;;7.05;;
70761;SDS011;58360;0.000;0.000;2023-06-22T03:57:37;15.25;;;8.38;;
70761;SDS011;58360;0.000;0.000;2023-06-22T04:00:03;14.50;;;7.32;;
70761;SDS011;58360;0.000;0.000;2023-06-22T04:02:31;12.45;;;8.77;;
70761;SDS011;58360;0.000;0.000;2023-06-22T04:04:56;12.88;;;7.75;;
70761;SDS011;58360;0.000;0.000;2023-06-22T04:07:22;15.35;;;8.32;;
70761;SDS011;58360;0.000;0.000;2023-06-22T04:09:48;13.52;;;7.72;;
70761;SDS011;58360;0.000;0.000;2023-06-22T04:12:13;13.65;;;8.80;;
70761;SDS011;58360;0.000;0.000;2023-06-22T04:14:39;15.48;;;8.38;;
70761;SDS011;58360;0.000;0.000;2023-06-22T04:17:05;14.75;;;8.43;;
70761;SDS011;58360;0.000;0.000;2023-06-22T04:19:30;11.02;;;8.85;;
70761;SDS011;58360;0.000;0.000;2023-06-22T04:21:56;14.65;;;8.88;;
70761;SDS011;58360;0.000;0.000;2023-06-22T04:24:22;17.80;;;9.43;;
70761;SDS011;58360;0.000;0.000;2023-06-22T04:26:47;11.00;;;7.93;;
70761;SDS011;58360;0.000;0.000;2023-06-22T04:29:13;15.93;;;8.60;;
70761;SDS011;58360;0.000;0.000;2023-06-22T04:31:39;16.48;;;9.90;;
70761;SDS011;58360;0.000;0.000;2023-06-22T04:34:05;11.32;;;8.90;;
70761;SDS011;58360;0.000;0.000;2023-06-22T04:36:35;15.50;;;9.27;;
70761;SDS011;58360;0.000;0.000;2023-06-22T04:39:06;15.70;;;9.30;;
70761;SDS011;58360;0.000;0.000;2023-06-22T04:41:39;14.10;;;9.23;;
70761;SDS011;58360;0.000;0.000;2023-06-22T04:44:09;18.98;;;10.35;;
70761;SDS011;58360;0.000;0.000;2023-06-22T04:46:38;13.05;;;8.13;;
70761;SDS011;58360;0.000;0.000;2023-06-22T04:49:05;14.82;;;8.68;;
70761;SDS011;58360;0.000;0.000;2023-06-22T04:51:38;16.45;;;8.68;;
70761;SDS011;58360;0.000;0.000;2023-06-22T04:54:07;12.10;;;9.35;;
70761;SDS011;58360;0.000;0.000;2023-06-22T04:56:33;15.38;;;9.32;;
70761;SDS011;58360;0.000;0.000;2023-06-22T04:59:00;15.00;;;9.95;;
70761;SDS011;58360;0.000;0.000;2023-06-22T05:01:26;11.30;;;8.55;;
70761;SDS011;58360;0.000;0.000;2023-06-22T05:03:52;14.60;;;10.05;;
70761;SDS011;58360;0.000;0.000;2023-06-22T05:06:21;17.85;;;10.63;;
70761;SDS011;58360;0.000;0.000;2023-06-22T05:08:50;19.65;;;10.00;;
70761;SDS011;58360;0.000;0.000;2023-06-22T05:11:22;16.95;;;9.80;;
70761;SDS011;58360;0.000;0.000;2023-06-22T05:13:49;17.40;;;11.55;;
70761;SDS011;58360;0.000;0.000;2023-06-22T05:16:14;13.55;;;9.13;;
70761;SDS011;58360;0.000;0.000;2023-06-22T05:18:40;15.27;;;10.40;;
70761;SDS011;58360;0.000;0.000;2023-06-22T05:21:06;18.95;;;11.32;;
70761;SDS011;58360;0.000;0.000;2023-06-22T05:23:32;20.33;;;11.18;;
70761;SDS011;58360;0.000;0.000;2023-06-22T05:25:58;13.60;;;8.75;;
70761;SDS011;58360;0.000;0.000;2023-06-22T05:28:23;13.23;;;8.57;;
70761;SDS011;58360;0.000;0.000;2023-06-22T05:30:49;16.48;;;8.80;;
70761;SDS011;58360;0.000;0.000;2023-06-22T05:33:15;14.85;;;10.13;;
70761;SDS011;58360;0.000;0.000;2023-06-22T05:35:40;16.65;;;10.43;;
70761;SDS011;58360;0.000;0.000;2023-06-22T05:38:06;15.00;;;10.82;;
70761;SDS011;58360;0.000;0.000;2023-06-22T05:40:32;18.58;;;11.65;;
70761;SDS011;58360;0.000;0.000;2023-06-22T05:42:58;16.08;;;11.60;;
70761;SDS011;58360;0.000;0.000;2023-06-22T05:45:25;19.65;;;12.65;;
70761;SDS011;58360;0.000;0.000;2023-06-22T05:47:51;16.60;;;12.65;;
70761;SDS011;58360;0.000;0.000;2023-06-22T05:50:17;18.63;;;13.02;;
70761;SDS011;58360;0.000;0.000;2023-06-22T05:52:42;18.63;;;12.32;;
70761;SDS011;58360;0.000;0.000;2023-06-22T05:55:08;21.15;;;13.10;;
70761;SDS011;58360;0.000;0.000;2023-06-22T05:57:34;18.92;;;13.10;;
70761;SDS011;58360;0.000;0.000;2023-06-22T05:59:59;18.00;;;13.73;;
70761;SDS011;58360;0.000;0.000;2023-06-22T06:02:25;18.95;;;13.90;;
70761;SDS011;58360;0.000;0.000;2023-06-22T06:04:51;17.65;;;13.70;;
70761;SDS011;58360;0.000;0.000;2023-06-22T06:07:17;18.40;;;12.20;;
70761;SDS011;58360;0.000;0.000;2023-06-22T06:09:43;20.67;;;13.18;;
70761;SDS011;58360;0.000;0.000;2023-06-22T06:12:09;18.40;;;12.02;;
70761;SDS011;58360;0.000;0.000;2023-06-22T06:14:34;20.77;;;12.15;;
70761;SDS011;58360;0.000;0.000;2023-06-22T06:17:00;20.55;;;13.88;;
70761;SDS011;58360;0.000;0.000;2023-06-22T06:19:26;15.07;;;10.43;;
70761;SDS011;58360;0.000;0.000;2023-06-22T06:21:51;36.22;;;13.05;;
70761;SDS011;58360;0.000;0.000;2023-06-22T06:24:17;25.73;;;13.70;;
70761;SDS011;58360;0.000;0.000;2023-06-22T06:26:42;16.00;;;12.45;;
70761;SDS011;58360;0.000;0.000;2023-06-22T06:29:08;22.75;;;12.50;;
70761;SDS011;58360;0.000;0.000;2023-06-22T06:31:34;20.23;;;11.52;;
70761;SDS011;58360;0.000;0.000;2023-06-22T06:34:00;13.93;;;10.95;;
70761;SDS011;58360;0.000;0.000;2023-06-22T06:36:25;18.58;;;13.35;;
70761;SDS011;58360;0.000;0.000;2023-06-22T06:38:51;16.10;;;12.60;;
70761;SDS011;58360;0.000;0.000;2023-06-22T06:41:17;21.60;;;10.70;;
70761;SDS011;58360;0.000;0.000;2023-06-22T06:43:42;45.15;;;13.65;;
70761;SDS011;58360;0.000;0.000;2023-06-22T06:46:08;19.05;;;10.48;;
70761;SDS011;58360;0.000;0.000;2023-06-22T06:48:34;17.05;;;11.68;;
70761;SDS011;58360;0.000;0.000;2023-06-22T06:51:00;20.42;;;11.35;;
70761;SDS011;58360;0.000;0.000;2023-06-22T06:53:29;19.05;;;12.88;;
70761;SDS011;58360;0.000;0.000;2023-06-22T06:55:54;20.95;;;13.18;;
70761;SDS011;58360;0.000;0.000;2023-06-22T06:58:20;21.48;;;11.82;;
70761;SDS011;58360;0.000;0.000;2023-06-22T07:00:48;14.68;;;9.70;;
70761;SDS011;58360;0.000;0.000;2023-06-22T07:03:14;17.42;;;11.52;;
70761;SDS011;58360;0.000;0.000;2023-06-22T07:05:39;18.40;;;11.50;;
70761;SDS011;58360;0.000;0.000;2023-06-22T07:08:05;18.67;;;12.57;;
70761;SDS011;58360;0.000;0.000;2023-06-22T07:10:31;17.77;;;11.05;;
70761;SDS011;58360;0.000;0.000;2023-06-22T07:12:56;14.52;;;10.88;;
70761;SDS011;58360;0.000;0.000;2023-06-22T07:15:22;18.77;;;11.55;;
70761;SDS011;58360;0.000;0.000;2023-06-22T07:17:48;13.77;;;9.68;;
70761;SDS011;58360;0.000;0.000;2023-06-22T07:20:13;16.60;;;11.38;;
70761;SDS011;58360;0.000;0.000;2023-06-22T07:22:39;29.38;;;11.13;;
70761;SDS011;58360;0.000;0.000;2023-06-22T07:25:07;16.75;;;10.55;;
70761;SDS011;58360;0.000;0.000;2023-06-22T07:27:44;15.63;;;11.60;;
70761;SDS011;58360;0.000;0.000;2023-06-22T07:30:11;18.00;;;10.63;;
70761;SDS011;58360;0.000;0.000;2023-06-22T07:32:37;16.50;;;12.35;;
70761;SDS011;58360;0.000;0.000;2023-06-22T07:35:03;15.60;;;11.55;;
70761;SDS011;58360;0.000;0.000;2023-06-22T07:37:29;15.75;;;11.10;;
70761;SDS011;58360;0.000;0.000;2023-06-22T07:39:56;18.00;;;8.82;;
70761;SDS011;58360;0.000;0.000;2023-06-22T07:42:26;18.05;;;11.13;;
70761;SDS011;58360;0.000;0.000;2023-06-22T07:44:52;14.90;;;9.05;;
70761;SDS011;58360;0.000;0.000;2023-06-22T07:47:18;17.42;;;11.32;;
70761;SDS011;58360;0.000;0.000;2023-06-22T07:49:44;11.77;;;7.85;;
70761;SDS011;58360;0.000;0.000;2023-06-22T07:52:11;14.30;;;9.85;;
70761;SDS011;58360;0.000;0.000;2023-06-22T07:54:37;11.93;;;7.28;;
70761;SDS011;58360;0.000;0.000;2023-06-22T07:57:03;10.02;;;6.72;;
70761;SDS011;58360;0.000;0.000;2023-06-22T07:59:29;17.10;;;11.02;;
70761;SDS011;58360;0.000;0.000;2023-06-22T08:01:55;11.48;;;8.02;;
70761;SDS011;58360;0.000;0.000;2023-06-22T08:04:21;16.00;;;10.30;;
70761;SDS011;58360;0.000;0.000;2023-06-22T08:06:46;12.18;;;9.02;;
70761;SDS011;58360;0.000;0.000;2023-06-22T08:09:12;15.77;;;10.43;;
70761;SDS011;58360;0.000;0.000;2023-06-22T08:11:38;15.02;;;10.25;;
70761;SDS011;58360;0.000;0.000;2023-06-22T08:14:03;18.58;;;9.45;;
70761;SDS011;58360;0.000;0.000;2023-06-22T08:16:29;15.07;;;9.02;;
70761;SDS011;58360;0.000;0.000;2023-06-22T08:18:55;15.15;;;9.13;;
70761;SDS011;58360;0.000;0.000;2023-06-22T08:21:21;13.80;;;10.00;;
70761;SDS011;58360;0.000;0.000;2023-06-22T08:23:47;12.82;;;8.13;;
70761;SDS011;58360;0.000;0.000;2023-06-22T08:26:14;13.48;;;8.57;;
70761;SDS011;58360;0.000;0.000;2023-06-22T08:28:40;17.52;;;10.73;;
70761;SDS011;58360;0.000;0.000;2023-06-22T08:31:05;13.73;;;8.57;;
70761;SDS011;58360;0.000;0.000;2023-06-22T08:33:31;14.95;;;10.13;;
70761;SDS011;58360;0.000;0.000;2023-06-22T08:35:57;12.07;;;8.38;;
70761;SDS011;58360;0.000;0.000;2023-06-22T08:38:23;14.02;;;8.55;;
70761;SDS011;58360;0.000;0.000;2023-06-22T08:40:49;11.77;;;8.68;;
70761;SDS011;58360;0.000;0.000;2023-06-22T08:43:15;13.73;;;9.32;;
70761;SDS011;58360;0.000;0.000;2023-06-22T08:45:41;12.50;;;7.72;;
70761;SDS011;58360;0.000;0.000;2023-06-22T08:48:06;14.43;;;9.30;;
70761;SDS011;58360;0.000;0.000;2023-06-22T08:50:32;10.10;;;7.10;;
70761;SDS011;58360;0.000;0.000;2023-06-22T08:52:58;20.38;;;9.20;;
70761;SDS011;58360;0.000;0.000;2023-06-22T08:55:23;11.80;;;8.82;;
70761;SDS011;58360;0.000;0.000;2023-06-22T08:57:49;12.23;;;9.13;;
70761;SDS011;58360;0.000;0.000;2023-06-22T09:00:16;15.85;;;8.43;;
70761;SDS011;58360;0.000;0.000;2023-06-22T09:02:43;12.80;;;8.88;;
70761;SDS011;58360;0.000;0.000;2023-06-22T09:05:09;14.50;;;9.73;;
70761;SDS011;58360;0.000;0.000;2023-06-22T09:07:35;15.40;;;8.82;;
70761;SDS011;58360;0.000;0.000;2023-06-22T09:10:01;12.80;;;7.90;;
70761;SDS011;58360;0.000;0.000;2023-06-22T09:12:29;14.35;;;8.63;;
70761;SDS011;58360;0.000;0.000;2023-06-22T09:14:55;12.05;;;7.97;;
70761;SDS011;58360;0.000;0.000;2023-06-22T09:17:22;15.15;;;8.20;;
70761;SDS011;58360;0.000;0.000;2023-06-22T09:19:48;13.85;;;10.25;;
70761;SDS011;58360;0.000;0.000;2023-06-22T09:22:14;18.08;;;10.20;;
70761;SDS011;58360;0.000;0.000;2023-06-22T09:24:39;18.85;;;10.80;;
70761;SDS011;58360;0.000;0.000;2023-06-22T09:27:05;17.83;;;10.65;;
70761;SDS011;58360;0.000;0.000;2023-06-22T09:29:31;17.85;;;11.70;;
70761;SDS011;58360;0.000;0.000;2023-06-22T09:32:02;16.48;;;10.73;;
70761;SDS011;58360;0.000;0.000;2023-06-22T09:34:28;19.38;;;11.27;;
70761;SDS011;58360;0.000;0.000;2023-06-22T09:36:56;18.42;;;11.00;;
70761;SDS011;58360;0.000;0.000;2023-06-22T09:39:22;15.93;;;10.63;;
70761;SDS011;58360;0.000;0.000;2023-06-22T09:41:48;18.42;;;12.50;;
70761;SDS011;58360;0.000;0.000;2023-06-22T09:44:13;15.70;;;11.07;;
70761;SDS011;58360;0.000;0.000;2023-06-22T09:46:39;19.13;;;12.93;;
70761;SDS011;58360;0.000;0.000;2023-06-22T09:49:05;18.30;;;12.30;;
70761;SDS011;58360;0.000;0.000;2023-06-22T09:51:30;21.80;;;14.07;;
70761;SDS011;58360;0.000;0.000;2023-06-22T09:53:56;18.23;;;12.98;;
70761;SDS011;58360;0.000;0.000;2023-06-22T09:56:23;17.48;;;11.98;;
70761;SDS011;58360;0.000;0.000;2023-06-22T09:58:48;17.15;;;12.65;;
70761;SDS011;58360;0.000;0.000;2023-06-22T10:01:17;22.90;;;16.65;;
70761;SDS011;58360;0.000;0.000;2023-06-22T10:03:43;21.95;;;15.30;;
70761;SDS011;58360;0.000;0.000;2023-06-22T10:06:09;24.55;;;17.35;;
70761;SDS011;58360;0.000;0.000;2023-06-22T10:08:35;28.98;;;18.95;;
70761;SDS011;58360;0.000;0.000;2023-06-22T10:11:01;21.35;;;13.90;;
70761;SDS011;58360;0.000;0.000;2023-06-22T10:13:27;17.00;;;12.32;;
70761;SDS011;58360;0.000;0.000;2023-06-22T10:15:53;26.63;;;17.17;;
70761;SDS011;58360;0.000;0.000;2023-06-22T10:18:19;23.38;;;15.20;;
70761;SDS011;58360;0.000;0.000;2023-06-22T10:20:47;24.45;;;18.88;;
70761;SDS011;58360;0.000;0.000;2023-06-22T10:23:14;23.25;;;13.23;;
70761;SDS011;58360;0.000;0.000;2023-06-22T10:25:39;19.25;;;15.10;;
70761;SDS011;58360;0.000;0.000;2023-06-22T10:28:05;18.85;;;14.43;;
70761;SDS011;58360;0.000;0.000;2023-06-22T10:30:31;15.88;;;12.95;;
70761;SDS011;58360;0.000;0.000;2023-06-22T10:32:56;15.55;;;10.95;;
70761;SDS011;58360;0.000;0.000;2023-06-22T10:35:22;17.65;;;12.95;;
70761;SDS011;58360;0.000;0.000;2023-06-22T10:37:48;18.35;;;11.60;;
70761;SDS011;58360;0.000;0.000;2023-06-22T10:40:14;19.27;;;14.00;;
70761;SDS011;58360;0.000;0.000;2023-06-22T10:42:41;18.50;;;12.77;;
70761;SDS011;58360;0.000;0.000;2023-06-22T10:45:07;13.45;;;9.43;;
70761;SDS011;58360;0.000;0.000;2023-06-22T10:47:33;19.40;;;13.35;;
70761;SDS011;58360;0.000;0.000;2023-06-22T10:50:00;18.17;;;12.60;;
70761;SDS011;58360;0.000;0.000;2023-06-22T10:52:26;17.20;;;12.27;;
70761;SDS011;58360;0.000;0.000;2023-06-22T10:54:52;18.95;;;13.38;;
70761;SDS011;58360;0.000;0.000;2023-06-22T10:57:17;17.88;;;12.23;;
70761;SDS011;58360;0.000;0.000;2023-06-22T10:59:43;21.45;;;13.43;;
70761;SDS011;58360;0.000;0.000;2023-06-22T11:02:09;22.55;;;14.10;;
70761;SDS011;58360;0.000;0.000;2023-06-22T11:04:34;15.05;;;11.10;;
70761;SDS011;58360;0.000;0.000;2023-06-22T11:07:00;16.40;;;11.80;;
70761;SDS011;58360;0.000;0.000;2023-06-22T11:09:26;15.18;;;10.82;;
70761;SDS011;58360;0.000;0.000;2023-06-22T11:11:52;17.45;;;13.05;;
70761;SDS011;58360;0.000;0.000;2023-06-22T11:14:21;15.90;;;12.93;;
70761;SDS011;58360;0.000;0.000;2023-06-22T11:16:47;21.67;;;15.13;;
70761;SDS011;58360;0.000;0.000;2023-06-22T11:19:13;20.77;;;10.70;;
70761;SDS011;58360;0.000;0.000;2023-06-22T11:21:38;18.35;;;12.20;;
70761;SDS011;58360;0.000;0.000;2023-06-22T11:24:04;17.63;;;11.20;;
70761;SDS011;58360;0.000;0.000;2023-06-22T11:26:30;17.17;;;11.73;;
70761;SDS011;58360;0.000;0.000;2023-06-22T11:28:57;16.60;;;9.30;;
70761;SDS011;58360;0.000;0.000;2023-06-22T11:31:23;16.02;;;11.35;;
70761;SDS011;58360;0.000;0.000;2023-06-22T11:33:49;18.35;;;10.73;;
70761;SDS011;58360;0.000;0.000;2023-06-22T11:36:14;18.17;;;13.02;;
70761;SDS011;58360;0.000;0.000;2023-06-22T11:38:40;15.75;;;9.48;;
70761;SDS011;58360;0.000;0.000;2023-06-22T11:41:07;17.63;;;11.45;;
70761;SDS011;58360;0.000;0.000;2023-06-22T11:43:33;15.32;;;11.30;;
70761;SDS011;58360;0.000;0.000;2023-06-22T11:45:59;19.80;;;13.13;;
70761;SDS011;58360;0.000;0.000;2023-06-22T11:48:28;18.98;;;13.10;;
70761;SDS011;58360;0.000;0.000;2023-06-22T11:50:55;17.58;;;12.98;;
70761;SDS011;58360;0.000;0.000;2023-06-22T11:53:24;20.35;;;14.07;;
70761;SDS011;58360;0.000;0.000;2023-06-22T11:55:50;18.85;;;14.00;;
70761;SDS011;58360;0.000;0.000;2023-06-22T11:58:17;13.82;;;10.45;;
70761;SDS011;58360;0.000;0.000;2023-06-22T12:00:43;14.15;;;9.98;;
70761;SDS011;58360;0.000;0.000;2023-06-22T12:03:10;18.38;;;12.07;;
70761;SDS011;58360;0.000;0.000;2023-06-22T12:05:36;22.95;;;14.45;;
70761;SDS011;58360;0.000;0.000;2023-06-22T12:08:02;21.02;;;12.50;;
70761;SDS011;58360;0.000;0.000;2023-06-22T12:10:27;16.65;;;10.48;;
70761;SDS011;58360;0.000;0.000;2023-06-22T12:12:53;16.15;;;12.48;;
70761;SDS011;58360;0.000;0.000;2023-06-22T12:15:19;20.20;;;13.57;;
70761;SDS011;58360;0.000;0.000;2023-06-22T12:17:48;18.27;;;15.38;;
70761;SDS011;58360;0.000;0.000;2023-06-22T12:20:14;14.95;;;13.35;;
70761;SDS011;58360;0.000;0.000;2023-06-22T12:22:40;18.55;;;14.80;;
70761;SDS011;58360;0.000;0.000;2023-06-22T12:25:07;17.75;;;14.48;;
70761;SDS011;58360;0.000;0.000;2023-06-22T12:27:33;12.30;;;8.27;;
70761;SDS011;58360;0.000;0.000;2023-06-22T12:29:59;19.02;;;13.27;;
70761;SDS011;58360;0.000;0.000;2023-06-22T12:32:25;22.15;;;16.67;;
70761;SDS011;58360;0.000;0.000;2023-06-22T12:34:51;19.08;;;13.85;;
70761;SDS011;58360;0.000;0.000;2023-06-22T12:37:17;18.02;;;13.35;;
70761;SDS011;58360;0.000;0.000;2023-06-22T12:39:43;16.65;;;12.70;;
70761;SDS011;58360;0.000;0.000;2023-06-22T12:42:09;15.00;;;11.82;;
70761;SDS011;58360;0.000;0.000;2023-06-22T12:44:37;18.48;;;13.60;;
70761;SDS011;58360;0.000;0.000;2023-06-22T12:47:03;12.52;;;9.93;;
70761;SDS011;58360;0.000;0.000;2023-06-22T12:49:29;16.73;;;13.00;;
70761;SDS011;58360;0.000;0.000;2023-06-22T12:51:54;16.20;;;11.55;;
70761;SDS011;58360;0.000;0.000;2023-06-22T12:54:20;19.55;;;12.48;;
70761;SDS011;58360;0.000;0.000;2023-06-22T12:56:46;14.40;;;10.82;;
70761;SDS011;58360;0.000;0.000;2023-06-22T12:59:12;14.88;;;10.80;;
70761;SDS011;58360;0.000;0.000;2023-06-22T13:01:37;17.25;;;13.18;;
70761;SDS011;58360;0.000;0.000;2023-06-22T13:04:03;18.85;;;14.23;;
70761;SDS011;58360;0.000;0.000;2023-06-22T13:06:29;19.58;;;14.55;;
70761;SDS011;58360;0.000;0.000;2023-06-22T13:08:55;20.13;;;13.95;;
70761;SDS011;58360;0.000;0.000;2023-06-22T13:11:20;20.48;;;13.90;;
70761;SDS011;58360;0.000;0.000;2023-06-22T13:13:46;19.90;;;14.73;;
70761;SDS011;58360;0.000;0.000;2023-06-22T13:16:12;17.13;;;13.18;;
70761;SDS011;58360;0.000;0.000;2023-06-22T13:18:38;18.17;;;14.05;;
70761;SDS011;58360;0.000;0.000;2023-06-22T13:21:04;18.50;;;13.68;;
70761;SDS011;58360;0.000;0.000;2023-06-22T13:23:29;17.58;;;13.82;;
70761;SDS011;58360;0.000;0.000;2023-06-22T13:25:55;27.70;;;18.20;;
70761;SDS011;58360;0.000;0.000;2023-06-22T13:28:22;18.27;;;14.45;;
70761;SDS011;58360;0.000;0.000;2023-06-22T13:30:48;15.60;;;12.95;;
70761;SDS011;58360;0.000;0.000;2023-06-22T13:33:16;19.60;;;13.75;;
70761;SDS011;58360;0.000;0.000;2023-06-22T13:35:42;19.60;;;16.90;;
70761;SDS011;58360;0.000;0.000;2023-06-22T13:38:08;18.38;;;13.00;;
70761;SDS011;58360;0.000;0.000;2023-06-22T13:40:34;24.60;;;16.48;;
70761;SDS011;58360;0.000;0.000;2023-06-22T13:43:00;18.00;;;16.08;;
70761;SDS011;58360;0.000;0.000;2023-06-22T13:45:26;22.75;;;18.55;;
70761;SDS011;58360;0.000;0.000;2023-06-22T13:47:52;25.63;;;19.38;;
70761;SDS011;58360;0.000;0.000;2023-06-22T13:50:17;16.77;;;12.70;;
70761;SDS011;58360;0.000;0.000;2023-06-22T13:52:43;22.60;;;16.83;;
70761;SDS011;58360;0.000;0.000;2023-06-22T13:55:09;22.80;;;18.33;;
70761;SDS011;58360;0.000;0.000;2023-06-22T13:57:34;27.63;;;18.83;;
70761;SDS011;58360;0.000;0.000;2023-06-22T14:00:01;18.67;;;15.13;;
70761;SDS011;58360;0.000;0.000;2023-06-22T14:02:28;24.88;;;19.05;;
70761;SDS011;58360;0.000;0.000;2023-06-22T14:04:55;24.40;;;16.02;;
70761;SDS011;58360;0.000;0.000;2023-06-22T14:07:21;25.65;;;20.63;;
70761;SDS011;58360;0.000;0.000;2023-06-22T14:09:47;26.15;;;20.80;;
70761;SDS011;58360;0.000;0.000;2023-06-22T14:12:12;26.67;;;21.05;;
70761;SDS011;58360;0.000;0.000;2023-06-22T14:14:39;22.42;;;17.60;;
70761;SDS011;58360;0.000;0.000;2023-06-22T14:17:05;25.98;;;19.50;;
70761;SDS011;58360;0.000;0.000;2023-06-22T14:19:30;23.30;;;17.70;;
70761;SDS011;58360;0.000;0.000;2023-06-22T14:21:56;26.88;;;20.52;;
70761;SDS011;58360;0.000;0.000;2023-06-22T14:24:23;19.83;;;16.15;;
70761;SDS011;58360;0.000;0.000;2023-06-22T14:26:48;20.58;;;17.50;;
70761;SDS011;58360;0.000;0.000;2023-06-22T14:29:14;26.90;;;20.65;;
70761;SDS011;58360;0.000;0.000;2023-06-22T14:31:40;25.95;;;18.58;;
70761;SDS011;58360;0.000;0.000;2023-06-22T14:34:06;24.45;;;19.85;;
70761;SDS011;58360;0.000;0.000;2023-06-22T14:36:31;20.05;;;15.45;;
70761;SDS011;58360;0.000;0.000;2023-06-22T14:38:57;21.80;;;16.55;;
70761;SDS011;58360;0.000;0.000;2023-06-22T14:41:23;22.85;;;15.15;;
70761;SDS011;58360;0.000;0.000;2023-06-22T14:43:49;17.77;;;13.73;;